createdAt,value
2019-05-16T00:03:27.979Z,75.96
2019-05-16T00:07:35.497Z,76.20
2019-05-16T00:11:43.853Z,75.48
2019-05-16T00:15:52.120Z,76.47
2019-05-16T00:20:00.693Z,76.10
2019-05-16T00:24:08.664Z,77.20
2019-05-16T00:28:18.143Z,77.27
2019-05-16T00:32:28.170Z,77.80
2019-05-16T00:36:38.164Z,77.82
2019-05-16T00:40:45.862Z,77.25
2019-05-16T00:44:53.661Z,77.01
2019-05-16T00:49:01.925Z,77.07
2019-05-16T00:53:10.305Z,76.29
2019-05-16T00:57:18.915Z,76.45
2019-05-16T01:01:28.263Z,76.98
2019-05-16T01:05:38.748Z,76.91
2019-05-16T01:09:45.838Z,77.14
2019-05-16T01:13:54.311Z,78.58
2019-05-16T01:18:02.070Z,77.86
2019-05-16T01:22:09.911Z,78.78
2019-05-16T01:26:18.696Z,78.25
2019-05-16T01:30:28.667Z,79.19
2019-05-16T01:34:37.818Z,78.80
2019-05-16T01:38:48.099Z,79.11
2019-05-16T01:42:57.775Z,79.78
2019-05-16T01:47:05.357Z,80.21
2019-05-16T01:51:13.803Z,80.21
2019-05-16T01:55:21.484Z,79.55
2019-05-16T01:59:29.658Z,80.09
2019-05-16T02:03:38.737Z,80.05
2019-05-16T02:07:48.016Z,80.90
2019-05-16T02:11:58.761Z,81.28
2019-05-16T02:16:08.239Z,81.21
2019-05-16T02:20:17.972Z,80.54
2019-05-16T02:24:28.347Z,80.52
2019-05-16T02:28:40.107Z,80.49
2019-05-16T02:32:45.714Z,80.23
2019-05-16T02:37:11.995Z,79.63
2019-05-16T02:41:03.651Z,79.84
2019-05-16T02:45:13.502Z,79.81
2019-05-16T02:49:21.751Z,78.88
2019-05-16T02:53:31.004Z,80.07
2019-05-16T02:57:41.447Z,78.13
2019-05-16T03:01:52.113Z,77.32
2019-05-16T03:06:01.460Z,79.85
2019-05-16T03:10:11.204Z,79.08
2019-05-16T03:14:21.260Z,79.29
2019-05-16T03:18:31.246Z,79.50
2019-05-16T03:22:41.226Z,79.53
2019-05-16T03:26:51.441Z,79.33
2019-05-16T03:31:05.073Z,79.54
2019-05-16T03:35:14.959Z,79.38
2019-05-16T03:39:21.241Z,79.21
2019-05-16T03:43:31.010Z,80.02
2019-05-16T03:47:42.239Z,79.76
2019-05-16T03:51:50.575Z,80.71
2019-05-16T03:56:01.572Z,81.33
2019-05-16T04:00:11.374Z,80.11
2019-05-16T04:04:20.649Z,80.20
2019-05-16T04:08:30.685Z,80.50
2019-05-16T04:12:37.297Z,80.48
2019-05-16T04:16:45.502Z,79.84
2019-05-16T04:20:53.647Z,79.38
2019-05-16T04:25:02.254Z,79.95
2019-05-16T04:29:11.932Z,80.01
2019-05-16T04:33:21.906Z,79.48
2019-05-16T04:37:31.371Z,79.41
2019-05-16T04:41:40.916Z,78.97
2019-05-16T04:45:52.129Z,78.54
2019-05-16T04:50:01.681Z,78.58
2019-05-16T04:54:11.478Z,78.85
2019-05-16T04:58:22.556Z,78.10
2019-05-16T05:02:30.769Z,78.11
2019-05-16T05:06:40.385Z,78.19
2019-05-16T05:10:47.162Z,77.37
2019-05-16T05:14:55.226Z,77.33
2019-05-16T05:19:02.846Z,77.60
2019-05-16T05:23:11.059Z,77.90
2019-05-16T05:27:19.764Z,76.91
2019-05-16T05:31:34.414Z,77.11
2019-05-16T05:35:40.702Z,78.30
2019-05-16T05:39:47.536Z,78.10
2019-05-16T05:43:56.231Z,77.47
2019-05-16T05:48:04.488Z,77.38
2019-05-16T05:52:12.864Z,76.62
2019-05-16T05:56:21.053Z,76.78
2019-05-16T06:00:30.345Z,77.49
2019-05-16T06:04:39.592Z,77.71
2019-05-16T06:08:50.009Z,77.76
2019-05-16T06:12:57.061Z,77.64
2019-05-16T06:17:05.392Z,76.34
2019-05-16T06:21:13.797Z,76.27
2019-05-16T06:25:22.885Z,75.46
2019-05-16T06:29:31.365Z,75.85
2019-05-16T06:33:41.127Z,73.06
2019-05-16T06:37:49.943Z,72.98
2019-05-16T06:42:00.413Z,73.48
2019-05-16T06:46:07.966Z,73.72
2019-05-16T06:50:15.798Z,72.88
2019-05-16T06:54:24.091Z,73.35
2019-05-16T06:58:43.696Z,71.94
2019-05-16T07:02:41.222Z,72.47
2019-05-16T07:06:58.599Z,72.15
2019-05-16T07:11:00.033Z,72.44
2019-05-16T07:15:12.400Z,73.30
2019-05-16T07:19:20.768Z,72.86
2019-05-16T07:23:29.906Z,73.39
2019-05-16T07:27:40.114Z,72.27
2019-05-16T07:31:47.886Z,73.42
2019-05-16T07:35:56.230Z,73.42
2019-05-16T07:40:16.285Z,73.91
2019-05-16T07:44:14.219Z,73.82
2019-05-16T07:48:22.428Z,74.40
2019-05-16T07:52:35.858Z,74.17
2019-05-16T07:56:40.851Z,73.76
2019-05-16T08:00:58.298Z,73.04
2019-05-16T08:05:00.877Z,73.69
2019-05-16T08:09:12.470Z,73.31
2019-05-16T08:13:21.284Z,72.08
2019-05-16T08:17:31.373Z,70.18
2019-05-16T08:21:41.167Z,68.10
2019-05-16T08:25:50.769Z,65.99
2019-05-16T08:30:02.106Z,62.80
2019-05-16T08:34:11.674Z,57.05
2019-05-16T08:38:21.118Z,58.38
2019-05-16T08:42:27.683Z,59.75
2019-05-16T08:46:35.900Z,61.07
2019-05-16T08:50:50.315Z,63.31
2019-05-16T08:54:53.569Z,62.77
2019-05-16T08:59:03.460Z,59.75
2019-05-16T09:03:12.299Z,59.90
2019-05-16T09:07:22.734Z,60.14
2019-05-16T09:11:44.921Z,60.87
2019-05-16T09:15:41.721Z,60.75
2019-05-16T09:19:50.296Z,58.17
2019-05-16T09:23:58.217Z,55.07
2019-05-16T09:28:07.436Z,54.92
2019-05-16T09:32:27.023Z,46.38
2019-05-16T09:36:28.100Z,45.32
2019-05-16T09:40:38.700Z,45.32
2019-05-16T09:44:47.561Z,43.38
2019-05-16T09:49:13.065Z,45.86
2019-05-16T09:53:07.247Z,49.04
2019-05-16T09:57:17.446Z,51.15
2019-05-16T10:01:27.627Z,57.13
2019-05-16T10:05:37.215Z,52.86
2019-05-16T10:09:50.024Z,50.28
2019-05-16T10:13:56.164Z,47.64
2019-05-16T10:18:07.355Z,47.77
2019-05-16T10:22:17.052Z,46.53
2019-05-16T10:26:27.715Z,46.53
2019-05-16T10:30:34.875Z,46.47
2019-05-16T10:34:42.900Z,43.62
2019-05-16T10:38:51.032Z,42.09
2019-05-16T10:42:59.244Z,40.11
2019-05-16T10:47:07.709Z,40.49
2019-05-16T10:51:17.102Z,37.19
2019-05-16T10:55:27.634Z,35.17
2019-05-16T10:59:57.730Z,33.48
2019-05-16T11:03:44.322Z,33.40
2019-05-16T11:07:53.476Z,35.64
2019-05-16T11:12:01.270Z,33.13
2019-05-16T11:16:09.516Z,32.51
2019-05-16T11:20:20.579Z,33.19
2019-05-16T11:24:29.727Z,34.24
2019-05-16T11:28:37.259Z,34.84
2019-05-16T11:32:46.981Z,34.42
2019-05-16T11:36:57.010Z,34.99
2019-05-16T11:41:07.220Z,34.44
2019-05-16T11:45:16.537Z,34.73
2019-05-16T11:49:24.585Z,37.08
2019-05-16T11:53:32.259Z,37.71
2019-05-16T11:57:39.971Z,37.01
2019-05-16T12:01:48.005Z,36.28
2019-05-16T12:05:58.015Z,36.61
2019-05-16T12:10:07.619Z,35.59
2019-05-16T12:14:16.598Z,35.93
2019-05-16T12:18:26.582Z,38.48
2019-05-16T12:22:37.487Z,40.15
2019-05-16T12:26:44.240Z,43.34
2019-05-16T12:30:52.318Z,44.33
2019-05-16T12:35:00.233Z,43.66
2019-05-16T12:39:09.157Z,43.02
2019-05-16T12:43:18.204Z,43.87
2019-05-16T12:47:26.348Z,45.22
2019-05-16T12:51:36.927Z,45.22
2019-05-16T12:55:44.335Z,45.33
2019-05-16T12:59:52.751Z,46.52
2019-05-16T13:04:00.769Z,46.52
2019-05-16T13:08:08.421Z,47.14
2019-05-16T13:12:17.540Z,44.94
2019-05-16T13:16:28.080Z,45.28
2019-05-16T13:20:39.228Z,46.24
2019-05-16T13:24:47.925Z,45.76
2019-05-16T13:28:57.839Z,48.26
2019-05-16T13:33:07.001Z,48.67
2019-05-16T13:37:17.612Z,48.30
2019-05-16T13:41:26.838Z,49.18
2019-05-16T13:45:33.883Z,49.41
2019-05-16T13:49:41.818Z,49.68
2019-05-16T13:53:49.530Z,48.70
2019-05-16T13:57:57.654Z,47.91
2019-05-16T14:02:07.792Z,47.61
2019-05-16T14:06:18.051Z,48.80
2019-05-16T14:10:29.785Z,49.62
2019-05-16T14:14:41.908Z,51.42
2019-05-16T14:18:47.025Z,52.69
2019-05-16T14:22:57.166Z,52.27
2019-05-16T14:27:06.464Z,53.14
2019-05-16T14:31:14.310Z,53.49
2019-05-16T14:35:21.999Z,53.32
2019-05-16T14:39:29.881Z,54.13
2019-05-16T14:43:37.885Z,55.37
2019-05-16T14:47:47.586Z,56.22
2019-05-16T14:51:57.870Z,56.85
2019-05-16T14:56:07.029Z,57.10
2019-05-16T15:00:18.300Z,58.03
2019-05-16T15:04:29.824Z,58.17
2019-05-16T15:08:34.905Z,58.51
2019-05-16T15:12:42.890Z,58.89
2019-05-16T15:16:51.994Z,59.54
2019-05-16T15:20:59.662Z,59.41
2019-05-16T15:25:08.520Z,59.22
2019-05-16T15:29:17.592Z,59.73
2019-05-16T15:33:27.326Z,59.95
2019-05-16T15:37:37.274Z,60.14
2019-05-16T15:41:45.284Z,60.63
2019-05-16T15:45:53.504Z,60.95
2019-05-16T15:50:01.488Z,60.48
2019-05-16T15:54:09.376Z,60.20
2019-05-16T15:58:18.369Z,61.12
2019-05-16T16:02:27.181Z,60.99
2019-05-16T16:06:37.783Z,60.50
2019-05-16T16:10:47.786Z,61.28
2019-05-16T16:14:57.354Z,61.25
2019-05-16T16:19:06.554Z,61.35
2019-05-16T16:23:17.527Z,61.55
2019-05-16T16:27:24.057Z,62.38
2019-05-16T16:31:32.088Z,63.01
2019-05-16T16:35:39.572Z,63.39
2019-05-16T16:39:47.580Z,63.63
2019-05-16T16:43:57.093Z,63.75
2019-05-16T16:48:04.672Z,63.94
2019-05-16T16:52:12.673Z,64.04
2019-05-16T16:56:20.665Z,64.64
2019-05-16T17:00:28.627Z,64.70
2019-05-16T17:04:38.870Z,64.83
2019-05-16T17:08:47.455Z,64.38
2019-05-16T17:12:57.585Z,64.92
2019-05-16T17:17:07.089Z,64.33
2019-05-16T17:21:17.087Z,64.25
2019-05-16T17:25:26.912Z,64.25
2019-05-16T17:29:36.876Z,65.14
2019-05-16T17:33:45.207Z,65.78
2019-05-16T17:37:52.803Z,65.37
2019-05-16T17:42:01.624Z,65.01
2019-05-16T17:46:09.847Z,64.34
2019-05-16T17:50:18.674Z,65.26
2019-05-16T17:54:26.796Z,66.73
2019-05-16T17:58:35.223Z,66.73
2019-05-16T18:02:43.473Z,67.25
2019-05-16T18:06:51.501Z,66.04
2019-05-16T18:10:59.551Z,66.04
2019-05-16T18:15:08.503Z,66.18
2019-05-16T18:19:17.371Z,66.18
2019-05-16T18:23:27.484Z,66.49
2019-05-16T18:27:37.419Z,66.17
2019-05-16T18:31:47.124Z,66.90
2019-05-16T18:35:57.808Z,66.44
2019-05-16T18:40:07.266Z,66.46
2019-05-16T18:44:16.695Z,68.01
2019-05-16T18:48:27.015Z,69.11
2019-05-16T18:52:37.252Z,69.96
2019-05-16T18:56:43.967Z,69.14
2019-05-16T19:00:52.745Z,67.80
2019-05-16T19:05:00.891Z,69.07
2019-05-16T19:09:08.972Z,71.18
2019-05-16T19:13:17.219Z,70.41
2019-05-16T19:17:27.498Z,68.73
2019-05-16T19:21:36.839Z,69.53
2019-05-16T19:25:47.385Z,71.51
2019-05-16T19:29:56.823Z,71.74
2019-05-16T19:34:06.998Z,70.50
2019-05-16T19:38:16.916Z,70.87
2019-05-16T19:42:26.664Z,71.88
2019-05-16T19:46:35.461Z,71.72
2019-05-16T19:50:46.237Z,72.12
2019-05-16T19:54:53.627Z,71.87
2019-05-16T19:59:02.170Z,71.75
2019-05-16T20:03:12.931Z,71.81
2019-05-16T20:07:20.674Z,71.49
2019-05-16T20:11:28.656Z,71.87
2019-05-16T20:15:37.229Z,71.58
2019-05-16T20:19:46.971Z,71.44
2019-05-16T20:23:56.769Z,71.46
2019-05-16T20:28:08.578Z,69.97
2019-05-16T20:32:16.706Z,70.92
2019-05-16T20:36:26.316Z,70.25
2019-05-16T20:40:33.166Z,70.07
2019-05-16T20:44:41.588Z,69.67
2019-05-16T20:48:49.501Z,69.44
2019-05-16T20:52:59.109Z,68.98
2019-05-16T20:57:07.263Z,69.41
2019-05-16T21:01:17.297Z,68.81
2019-05-16T21:05:26.840Z,69.31
2019-05-16T21:09:36.894Z,68.83
2019-05-16T21:13:46.911Z,69.31
2019-05-16T21:17:56.747Z,69.81
2019-05-16T21:22:07.142Z,69.30
2019-05-16T21:26:14.877Z,70.19
2019-05-16T21:30:23.762Z,70.57
2019-05-16T21:34:31.827Z,70.81
2019-05-16T21:38:40.302Z,71.13
2019-05-16T21:42:48.144Z,70.51
2019-05-16T21:46:56.498Z,71.50
2019-05-16T21:51:07.842Z,71.02
2019-05-16T21:55:17.505Z,71.35
2019-05-16T21:59:28.497Z,70.31
2019-05-16T22:03:36.727Z,69.80
2019-05-16T22:07:47.169Z,71.17
2019-05-16T22:11:57.377Z,72.59
2019-05-16T22:16:08.070Z,72.41
2019-05-16T22:20:16.817Z,72.64
2019-05-16T22:24:26.501Z,73.04
2019-05-16T22:28:34.713Z,73.35
2019-05-16T22:32:47.029Z,73.21
2019-05-16T22:36:57.301Z,72.41
2019-05-16T22:41:06.985Z,72.59
2019-05-16T22:45:17.614Z,73.48
2019-05-16T22:49:27.513Z,74.17
2019-05-16T22:53:36.875Z,73.91
2019-05-16T22:57:47.268Z,72.69
2019-05-16T23:01:56.966Z,73.60
2019-05-16T23:06:07.573Z,73.94
2019-05-16T23:10:16.655Z,73.79
2019-05-16T23:14:26.392Z,74.50
2019-05-16T23:18:34.571Z,74.99
2019-05-16T23:22:42.073Z,74.72
2019-05-16T23:26:49.789Z,74.92
2019-05-16T23:30:57.982Z,73.78
2019-05-16T23:35:06.869Z,74.49
2019-05-16T23:39:14.666Z,74.63
2019-05-16T23:43:22.658Z,74.01
2019-05-16T23:47:30.238Z,73.63
2019-05-16T23:51:38.616Z,74.07
2019-05-16T23:55:47.218Z,73.38
2019-05-16T23:59:56.766Z,74.21
